createdAt,value
2023-01-18T00:02:27.427Z,97690.03
2023-01-18T00:05:29.069Z,97689.25
2023-01-18T00:08:31.884Z,97689.94
2023-01-18T00:11:33.318Z,97690.91
2023-01-18T00:14:34.737Z,97681.81
2023-01-18T00:17:47.450Z,97684.78
2023-01-18T00:20:48.875Z,97685.31
2023-01-18T00:23:50.725Z,97699.38
2023-01-18T00:26:52.153Z,97693.28
2023-01-18T00:29:53.597Z,97695.59
2023-01-18T00:32:59.143Z,97689.50
2023-01-18T00:36:03.001Z,97687.59
2023-01-18T00:39:04.505Z,97686.63
2023-01-18T00:42:24.231Z,97693.56
2023-01-18T00:45:25.953Z,97687.25
2023-01-18T00:48:27.391Z,97687.19
2023-01-18T00:51:28.777Z,97677.47
2023-01-18T00:54:30.158Z,97672.28
2023-01-18T00:57:31.605Z,97681.00
2023-01-18T01:00:33.409Z,97677.47
2023-01-18T01:03:54.921Z,97683.31
2023-01-18T01:06:56.442Z,97688.78
2023-01-18T01:09:58.109Z,97683.59
2023-01-18T01:13:17.901Z,97694.78
2023-01-18T01:16:38.390Z,97699.97
2023-01-18T01:19:58.395Z,97707.34
2023-01-18T01:23:34.097Z,97702.72
2023-01-18T01:26:35.661Z,97707.44
2023-01-18T01:29:37.998Z,97707.53
2023-01-18T01:32:39.405Z,97701.31
2023-01-18T01:35:40.776Z,97719.53
2023-01-18T01:38:42.241Z,97712.06
2023-01-18T01:41:43.713Z,97722.88
2023-01-18T01:44:52.056Z,97723.31
2023-01-18T01:47:54.485Z,97730.09
2023-01-18T01:50:55.977Z,97727.38
2023-01-18T01:54:01.614Z,97738.84
2023-01-18T01:57:12.594Z,97747.06
2023-01-18T02:00:24.204Z,97742.00
2023-01-18T02:03:25.763Z,97750.16
2023-01-18T02:06:34.251Z,97755.53
2023-01-18T02:09:35.687Z,97758.13
2023-01-18T02:12:40.581Z,97758.22
2023-01-18T02:16:03.050Z,97767.38
2023-01-18T02:19:22.359Z,97775.16
2023-01-18T02:23:09.517Z,97779.47
2023-01-18T02:26:41.561Z,97770.44
2023-01-18T02:30:24.951Z,97785.03
2023-01-18T02:33:42.842Z,97783.06
2023-01-18T02:37:16.611Z,97788.84
2023-01-18T02:40:32.136Z,97787.88
2023-01-18T02:43:53.648Z,97791.25
2023-01-18T02:46:55.255Z,97793.00
2023-01-18T02:49:57.667Z,97795.97
2023-01-18T02:52:59.380Z,97790.19
2023-01-18T02:56:03.547Z,97807.03
2023-01-18T02:59:35.135Z,97816.66
2023-01-18T03:02:39.408Z,97815.47
2023-01-18T03:05:42.987Z,97812.75
2023-01-18T03:08:50.351Z,97820.16
2023-01-18T03:12:02.138Z,97817.38
2023-01-18T03:15:18.754Z,97824.56
2023-01-18T03:18:35.494Z,97825.22
2023-01-18T03:21:43.262Z,97829.00
2023-01-18T03:24:45.884Z,97830.81
2023-01-18T03:28:09.711Z,97836.25
2023-01-18T03:31:35.541Z,97843.59
2023-01-18T03:35:08.831Z,97840.84
2023-01-18T03:38:10.617Z,97843.88
2023-01-18T03:41:15.518Z,97842.84
2023-01-18T03:44:25.571Z,97853.72
2023-01-18T03:47:27.130Z,97862.00
2023-01-18T03:50:39.100Z,97861.06
2023-01-18T03:53:54.343Z,97867.28
2023-01-18T03:57:15.253Z,97865.97
2023-01-18T04:00:18.058Z,97870.09
2023-01-18T04:03:19.422Z,97874.00
2023-01-18T04:06:22.821Z,97883.13
2023-01-18T04:09:25.377Z,97880.00
2023-01-18T04:12:27.344Z,97883.34
2023-01-18T04:15:28.754Z,97896.47
2023-01-18T04:18:30.121Z,97891.38
2023-01-18T04:21:31.505Z,97898.03
2023-01-18T04:24:32.922Z,97898.03
2023-01-18T04:27:34.437Z,97902.47
2023-01-18T04:30:35.831Z,97907.94
2023-01-18T04:33:37.279Z,97916.34
2023-01-18T04:36:38.776Z,97913.13
2023-01-18T04:39:40.176Z,97919.81
2023-01-18T04:42:41.595Z,97923.94
2023-01-18T04:45:43.087Z,97920.22
2023-01-18T04:48:44.548Z,97931.09
2023-01-18T04:51:46.834Z,97931.22
2023-01-18T04:54:48.226Z,97936.06
2023-01-18T04:57:56.504Z,97946.41
2023-01-18T05:01:01.682Z,97950.56
2023-01-18T05:04:03.491Z,97955.78
2023-01-18T05:07:04.941Z,97963.38
2023-01-18T05:10:06.664Z,97967.09
2023-01-18T05:13:08.150Z,97970.66
2023-01-18T05:16:15.042Z,97974.34
2023-01-18T05:19:16.415Z,97975.97
2023-01-18T05:22:17.807Z,97992.41
2023-01-18T05:25:19.218Z,97995.81
2023-01-18T05:28:22.073Z,97992.97
2023-01-18T05:31:23.845Z,98009.16
2023-01-18T05:34:27.134Z,98009.44
2023-01-18T05:37:28.507Z,98013.59
2023-01-18T05:40:29.936Z,98022.00
2023-01-18T05:43:31.774Z,98024.16
2023-01-18T05:46:33.167Z,98032.16
2023-01-18T05:49:34.547Z,98034.81
2023-01-18T05:52:35.949Z,98042.41
2023-01-18T05:55:37.491Z,98050.56
2023-01-18T05:58:38.937Z,98059.28
2023-01-18T06:01:40.459Z,98066.78
2023-01-18T06:04:44.192Z,98084.53
2023-01-18T06:07:45.623Z,98084.81
2023-01-18T06:10:57.850Z,98095.31
2023-01-18T06:13:59.525Z,98095.50
2023-01-18T06:17:01.624Z,98106.63
2023-01-18T06:20:04.718Z,98114.25
2023-01-18T06:23:06.109Z,98119.41
2023-01-18T06:26:07.702Z,98123.78
2023-01-18T06:29:09.188Z,98125.69
2023-01-18T06:32:10.597Z,98131.63
2023-01-18T06:35:11.982Z,98138.25
2023-01-18T06:38:13.978Z,98143.31
2023-01-18T06:41:15.897Z,98150.09
2023-01-18T06:44:17.390Z,98160.38
2023-01-18T06:47:19.885Z,98165.56
2023-01-18T06:50:22.448Z,98167.34
2023-01-18T06:53:24.422Z,98161.97
2023-01-18T06:56:26.765Z,98166.59
2023-01-18T06:59:28.464Z,98179.59
2023-01-18T07:02:29.845Z,98185.69
2023-01-18T07:05:31.257Z,98188.41
2023-01-18T07:08:32.925Z,98200.56
2023-01-18T07:11:35.728Z,98199.69
2023-01-18T07:14:37.285Z,98200.38
2023-01-18T07:17:38.679Z,98200.47
2023-01-18T07:20:40.073Z,98206.53
2023-01-18T07:23:42.298Z,98211.72
2023-01-18T07:26:44.086Z,98226.31
2023-01-18T07:29:45.489Z,98229.72
2023-01-18T07:32:50.919Z,98230.50
2023-01-18T07:35:53.879Z,98241.63
2023-01-18T07:38:55.579Z,98239.25
2023-01-18T07:41:57.052Z,98251.38
2023-01-18T07:44:58.439Z,98253.84
2023-01-18T07:48:00.620Z,98258.78
2023-01-18T07:51:04.627Z,98258.59
2023-01-18T07:54:07.162Z,98261.34
2023-01-18T07:57:08.639Z,98263.88
2023-01-18T08:00:12.046Z,98262.09
2023-01-18T08:03:16.855Z,98270.38
2023-01-18T08:06:24.906Z,98275.28
2023-01-18T08:09:26.523Z,98282.13
2023-01-18T08:12:28.039Z,98299.00
2023-01-18T08:15:31.288Z,98303.16
2023-01-18T08:18:33.329Z,98305.69
2023-01-18T08:21:34.757Z,98309.84
2023-01-18T08:24:36.739Z,98313.66
2023-01-18T08:27:38.790Z,98308.22
2023-01-18T08:30:46.089Z,98321.09
2023-01-18T08:33:48.730Z,98326.63
2023-01-18T08:36:51.035Z,98330.72
2023-01-18T08:39:52.447Z,98338.00
2023-01-18T08:42:59.626Z,98347.69
2023-01-18T08:46:01.334Z,98347.91
2023-01-18T08:49:05.669Z,98361.91
2023-01-18T08:52:07.398Z,98362.59
2023-01-18T08:55:09.228Z,98370.88
2023-01-18T08:58:11.913Z,98373.47
2023-01-18T09:01:13.675Z,98385.41
2023-01-18T09:04:15.103Z,98381.88
2023-01-18T09:07:23.030Z,98387.47
2023-01-18T09:10:24.602Z,98403.06
2023-01-18T09:13:26.125Z,98399.97
2023-01-18T09:16:28.298Z,98404.81
2023-01-18T09:19:30.068Z,98410.81
2023-01-18T09:22:31.456Z,98412.78
2023-01-18T09:25:33.198Z,98416.88
2023-01-18T09:28:35.493Z,98432.03
2023-01-18T09:31:37.181Z,98434.34
2023-01-18T09:34:38.971Z,98443.88
2023-01-18T09:37:40.429Z,98456.38
2023-01-18T09:40:44.615Z,98461.75
2023-01-18T09:43:52.206Z,98465.34
2023-01-18T09:46:58.557Z,98469.13
2023-01-18T09:50:06.613Z,98474.28
2023-01-18T09:53:41.376Z,98475.69
2023-01-18T09:56:51.926Z,98485.88
2023-01-18T09:59:59.374Z,98490.47
2023-01-18T10:03:08.842Z,98489.56
2023-01-18T10:06:18.486Z,98494.63
2023-01-18T10:09:27.165Z,98501.34
2023-01-18T10:12:40.922Z,98504.69
2023-01-18T10:15:42.524Z,98508.25
2023-01-18T10:18:48.801Z,98515.56
2023-01-18T10:21:57.811Z,98514.84
2023-01-18T10:25:14.819Z,98515.56
2023-01-18T10:28:50.381Z,98515.75
2023-01-18T10:32:00.471Z,98518.88
2023-01-18T10:35:14.199Z,98526.06
2023-01-18T10:38:20.864Z,98521.72
2023-01-18T10:41:28.958Z,98520.63
2023-01-18T10:44:31.529Z,98529.25
2023-01-18T10:47:33.906Z,98536.06
2023-01-18T10:50:43.909Z,98536.69
2023-01-18T10:53:45.314Z,98532.94
2023-01-18T10:56:46.712Z,98532.44
2023-01-18T10:59:51.416Z,98534.53
2023-01-18T11:02:55.540Z,98540.28
2023-01-18T11:06:06.898Z,98536.78
2023-01-18T11:09:34.208Z,98549.28
2023-01-18T11:12:47.723Z,98555.59
2023-01-18T11:16:02.428Z,98547.97
2023-01-18T11:19:15.872Z,98552.91
2023-01-18T11:22:17.441Z,98560.63
2023-01-18T11:25:18.976Z,98563.69
2023-01-18T11:28:22.659Z,98564.69
2023-01-18T11:31:26.266Z,98573.69
2023-01-18T11:34:31.423Z,98569.06
2023-01-18T11:37:38.267Z,98573.59
2023-01-18T11:40:39.665Z,98573.44
2023-01-18T11:43:53.122Z,98579.66
2023-01-18T11:46:57.883Z,98580.91
2023-01-18T11:50:21.378Z,98579.72
2023-01-18T11:53:26.593Z,98577.84
2023-01-18T11:56:45.136Z,98584.44
2023-01-18T11:59:48.658Z,98587.41
2023-01-18T12:02:57.809Z,98591.25
2023-01-18T12:06:26.933Z,98597.63
2023-01-18T12:09:52.431Z,98610.34
2023-01-18T12:13:27.823Z,98603.69
2023-01-18T12:17:01.533Z,98605.56
2023-01-18T12:20:31.204Z,98618.56
2023-01-18T12:23:56.960Z,98623.78
2023-01-18T12:27:04.031Z,98625.91
2023-01-18T12:30:32.823Z,98626.97
2023-01-18T12:33:44.195Z,98631.03
2023-01-18T12:37:02.634Z,98636.81
2023-01-18T12:40:34.516Z,98640.03
2023-01-18T12:44:05.404Z,98639.97
2023-01-18T12:47:35.006Z,98640.56
2023-01-18T12:50:39.263Z,98640.91
2023-01-18T12:54:13.299Z,98653.53
2023-01-18T12:57:16.946Z,98649.22
2023-01-18T13:00:28.256Z,98655.75
2023-01-18T13:03:35.313Z,98648.09
2023-01-18T13:06:39.496Z,98656.78
2023-01-18T13:09:46.437Z,98663.53
2023-01-18T13:12:50.813Z,98665.84
2023-01-18T13:16:13.582Z,98668.63
2023-01-18T13:19:24.800Z,98678.84
2023-01-18T13:22:35.633Z,98669.78
2023-01-18T13:25:51.248Z,98677.13
2023-01-18T13:29:16.750Z,98684.41
2023-01-18T13:32:24.647Z,98687.69
2023-01-18T13:35:33.446Z,98693.13
2023-01-18T13:38:41.512Z,98696.44
2023-01-18T13:42:02.248Z,98701.75
2023-01-18T13:45:17.156Z,98706.81
2023-01-18T13:49:01.576Z,98728.03
2023-01-18T13:52:32.560Z,98727.19
2023-01-18T13:55:33.961Z,98732.31
2023-01-18T13:58:40.164Z,98733.06
2023-01-18T14:01:44.049Z,98736.59
2023-01-18T14:04:46.116Z,98744.44
2023-01-18T14:07:51.788Z,98754.75
2023-01-18T14:11:04.317Z,98756.75
2023-01-18T14:14:11.770Z,98763.28
2023-01-18T14:17:16.389Z,98767.13
2023-01-18T14:20:37.968Z,98769.75
2023-01-18T14:24:09.493Z,98779.50
2023-01-18T14:27:21.866Z,98787.28
2023-01-18T14:30:29.539Z,98799.84
2023-01-18T14:33:38.037Z,98799.38
2023-01-18T14:36:39.431Z,98808.34
2023-01-18T14:39:41.039Z,98803.09
2023-01-18T14:42:55.787Z,98811.50
2023-01-18T14:46:01.333Z,98818.97
2023-01-18T14:49:02.801Z,98818.19
2023-01-18T14:52:07.739Z,98814.81
2023-01-18T14:55:27.064Z,98825.16
2023-01-18T14:58:28.808Z,98828.91
2023-01-18T15:01:39.105Z,98833.16
2023-01-18T15:04:45.343Z,98844.81
2023-01-18T15:07:55.761Z,98840.94
2023-01-18T15:10:58.198Z,98856.63
2023-01-18T15:14:00.082Z,98855.03
2023-01-18T15:17:06.112Z,98861.31
2023-01-18T15:20:14.470Z,98865.47
2023-01-18T15:23:16.191Z,98882.97
2023-01-18T15:26:17.573Z,98887.38
2023-01-18T15:29:26.431Z,98884.66
2023-01-18T15:32:37.397Z,98887.41
2023-01-18T15:35:38.877Z,98889.97
2023-01-18T15:38:40.307Z,98901.84
2023-01-18T15:41:43.601Z,98908.69
2023-01-18T15:44:51.512Z,98909.78
2023-01-18T15:48:08.049Z,98915.03
2023-01-18T15:51:10.883Z,98923.94
2023-01-18T15:54:22.865Z,98930.13
2023-01-18T15:57:24.356Z,98930.19
2023-01-18T16:00:30.689Z,98932.91
2023-01-18T16:03:41.166Z,98942.50
2023-01-18T16:06:45.385Z,98944.31
2023-01-18T16:09:46.832Z,98948.94
2023-01-18T16:12:48.380Z,98951.75
2023-01-18T16:16:04.959Z,98945.78
2023-01-18T16:19:34.769Z,98955.53
2023-01-18T16:22:37.111Z,98958.44
2023-01-18T16:25:39.107Z,98963.06
2023-01-18T16:28:40.875Z,98968.34
2023-01-18T16:31:43.953Z,98973.09
2023-01-18T16:34:45.561Z,98975.97
2023-01-18T16:37:47.995Z,98978.16
2023-01-18T16:40:50.849Z,98990.59
2023-01-18T16:43:52.243Z,98995.84
2023-01-18T16:46:53.862Z,98994.25
2023-01-18T16:49:55.297Z,99004.09
2023-01-18T16:52:56.711Z,99010.09
2023-01-18T16:55:58.093Z,99017.69
2023-01-18T16:59:00.682Z,99019.81
2023-01-18T17:02:02.273Z,99028.13
2023-01-18T17:05:04.022Z,99032.88
2023-01-18T17:08:05.399Z,99038.53
2023-01-18T17:11:06.955Z,99047.31
2023-01-18T17:14:08.622Z,99049.06
2023-01-18T17:17:10.851Z,99057.69
2023-01-18T17:20:17.994Z,99065.50
2023-01-18T17:23:19.429Z,99071.78
2023-01-18T17:26:20.892Z,99079.53
2023-01-18T17:29:22.521Z,99072.69
2023-01-18T17:32:24.021Z,99084.00
2023-01-18T17:35:27.692Z,99087.41
2023-01-18T17:41:33.660Z,99097.00
2023-01-18T17:44:37.413Z,99102.53
2023-01-18T17:47:39.208Z,99114.63
2023-01-18T17:50:41.582Z,99114.56
2023-01-18T17:53:43.425Z,99117.91
2023-01-18T17:56:45.214Z,99116.19
2023-01-18T17:59:46.639Z,99123.97
2023-01-18T18:02:50.938Z,99125.63
2023-01-18T18:05:57.603Z,99135.34
2023-01-18T18:09:00.485Z,99140.72
2023-01-18T18:12:01.964Z,99145.22
2023-01-18T18:15:05.024Z,99147.81
2023-01-18T18:18:12.300Z,99158.03
2023-01-18T18:21:26.154Z,99158.03
2023-01-18T18:24:27.559Z,99163.31
2023-01-18T18:27:44.455Z,99163.50
2023-01-18T18:30:51.293Z,99170.34
2023-01-18T18:33:52.791Z,99172.03
2023-01-18T18:36:54.271Z,99177.28
2023-01-18T18:39:55.897Z,99175.56
2023-01-18T18:43:02.363Z,99178.09
2023-01-18T18:46:04.293Z,99185.81
2023-01-18T18:49:06.833Z,99189.44
2023-01-18T18:52:08.259Z,99193.03
2023-01-18T18:55:11.184Z,99196.78
2023-01-18T18:58:12.752Z,99207.09
2023-01-18T19:01:22.559Z,99218.25
2023-01-18T19:04:24.805Z,99215.81
2023-01-18T19:07:26.796Z,99223.75
2023-01-18T19:10:30.216Z,99224.63
2023-01-18T19:13:31.637Z,99230.59
2023-01-18T19:16:33.181Z,99236.66
2023-01-18T19:19:34.703Z,99232.50
2023-01-18T19:22:37.911Z,99243.78
2023-01-18T19:25:40.485Z,99253.16
2023-01-18T19:28:42.085Z,99246.19
2023-01-18T19:31:43.614Z,99259.13
2023-01-18T19:34:45.007Z,99253.88
2023-01-18T19:37:47.361Z,99254.81
2023-01-18T19:40:48.881Z,99257.47
2023-01-18T19:43:50.561Z,99268.78
2023-01-18T19:46:53.888Z,99273.13
2023-01-18T19:49:57.187Z,99270.47
2023-01-18T19:52:59.603Z,99276.50
2023-01-18T19:56:07.173Z,99284.28
2023-01-18T19:59:11.211Z,99280.81
2023-01-18T20:02:12.822Z,99279.81
2023-01-18T20:05:14.347Z,99293.72
2023-01-18T20:08:15.812Z,99296.31
2023-01-18T20:11:17.340Z,99298.06
2023-01-18T20:14:19.548Z,99305.84
2023-01-18T20:17:20.979Z,99306.75
2023-01-18T20:20:31.850Z,99317.94
2023-01-18T20:23:34.061Z,99316.22
2023-01-18T20:26:37.721Z,99321.47
2023-01-18T20:29:39.660Z,99318.88
2023-01-18T20:32:41.119Z,99317.16
2023-01-18T20:35:42.921Z,99319.84
2023-01-18T20:38:44.440Z,99334.53
2023-01-18T20:41:48.610Z,99338.84
2023-01-18T20:44:53.471Z,99336.22
2023-01-18T20:47:54.977Z,99348.28
2023-01-18T20:51:00.564Z,99349.25
2023-01-18T20:54:02.287Z,99357.91
2023-01-18T20:57:06.947Z,99364.00
2023-01-18T21:00:09.177Z,99360.50
2023-01-18T21:03:13.831Z,99364.84
2023-01-18T21:06:16.012Z,99376.09
2023-01-18T21:09:17.514Z,99377.84
2023-01-18T21:12:18.989Z,99371.78
2023-01-18T21:15:20.420Z,99379.56
2023-01-18T21:18:21.916Z,99382.22
2023-01-18T21:21:23.857Z,99392.59
2023-01-18T21:24:25.311Z,99397.84
2023-01-18T21:27:27.176Z,99399.56
2023-01-18T21:30:28.711Z,99397.78
2023-01-18T21:33:30.189Z,99402.97
2023-01-18T21:36:31.743Z,99393.50
2023-01-18T21:39:33.236Z,99401.34
2023-01-18T21:42:53.327Z,99397.03
2023-01-18T21:45:58.648Z,99401.34
2023-01-18T21:49:05.140Z,99401.34
2023-01-18T21:52:26.419Z,99402.22
2023-01-18T21:55:27.978Z,99406.53
2023-01-18T21:58:48.212Z,99409.13
2023-01-18T22:01:49.758Z,99415.22
2023-01-18T22:05:00.327Z,99415.31
2023-01-18T22:08:02.110Z,99423.06
2023-01-18T22:11:03.788Z,99420.47
2023-01-18T22:14:06.188Z,99435.16
2023-01-18T22:17:08.431Z,99443.00
2023-01-18T22:20:11.218Z,99436.19
2023-01-18T22:23:12.597Z,99444.00
2023-01-18T22:26:14.224Z,99452.63
2023-01-18T22:29:15.693Z,99447.53
2023-01-18T22:32:17.200Z,99460.41
2023-01-18T22:35:18.770Z,99463.84
2023-01-18T22:38:20.168Z,99465.53
2023-01-18T22:41:24.981Z,99479.41
2023-01-18T22:44:26.457Z,99476.81
2023-01-18T22:47:27.919Z,99482.81
2023-01-18T22:50:29.359Z,99488.03
2023-01-18T22:53:31.901Z,99482.81
2023-01-18T22:56:35.114Z,99482.78
2023-01-18T22:59:36.527Z,99484.50
2023-01-18T23:02:38.229Z,99479.34
2023-01-18T23:05:39.663Z,99489.66
2023-01-18T23:08:44.050Z,99493.09
2023-01-18T23:11:47.455Z,99488.75
2023-01-18T23:15:07.491Z,99493.97
2023-01-18T23:18:08.887Z,99494.84
2023-01-18T23:21:10.296Z,99501.78
2023-01-18T23:24:12.002Z,99492.28
2023-01-18T23:27:13.400Z,99496.59
2023-01-18T23:30:15.185Z,99495.75
2023-01-18T23:33:16.575Z,99496.56
2023-01-18T23:36:18.108Z,99495.72
2023-01-18T23:39:38.193Z,99500.03
2023-01-18T23:42:58.238Z,99499.22
2023-01-18T23:46:17.894Z,99507.09
2023-01-18T23:49:37.994Z,99500.22
2023-01-18T23:52:57.747Z,99507.13
2023-01-18T23:55:59.527Z,99514.88
2023-01-18T23:59:01.038Z,99516.59
